Time,TemperatureF,DewpointF,PressureIn,WindDirection,WindDirectionDegrees,WindSpeedMPH,WindSpeedGustMPH,Humidity,HourlyPrecipIn,Conditions,Clouds,dailyrainin,SoftwareType,DateUTC
2013-01-26 00:00:00,17.2,17.2,30.12,WNW,297,0.0,51.0,100,7.87,,,0.00,VWS V13.01,2013-01-26 05:00:00,
2013-01-26 00:03:00,17.1,17.1,30.13,WNW,297,0.0,51.0,100,7.87,,,0.00,VWS V13.01,2013-01-26 05:03:00,
2013-01-26 00:08:00,17.5,17.5,30.12,WNW,297,0.0,51.0,100,7.87,,,0.00,VWS V13.01,2013-01-26 05:08:00,
2013-01-26 00:13:00,17.3,17.3,30.12,WNW,297,0.0,51.0,100,7.87,,,0.00,VWS V13.01,2013-01-26 05:13:00,
2013-01-26 00:18:00,17.1,17.1,30.12,NW,304,0.0,51.0,100,7.87,,,0.00,VWS V13.01,2013-01-26 05:18:00,
2013-01-26 00:23:00,17.2,17.2,30.12,NNW,346,0.0,51.0,100,7.87,,,0.00,VWS V13.01,2013-01-26 05:23:00,
2013-01-26 00:28:00,17.6,17.6,30.12,NNW,346,0.0,51.0,100,7.87,,,0.00,VWS V13.01,2013-01-26 05:28:00,
2013-01-26 00:33:00,17.7,17.7,30.12,NNW,346,0.0,51.0,100,7.87,,,0.00,VWS V13.01,2013-01-26 05:33:00,
2013-01-26 00:38:00,17.2,17.2,30.12,NW,319,0.0,51.0,100,7.87,,,0.00,VWS V13.01,2013-01-26 05:38:00,
2013-01-26 00:43:00,17.2,17.2,30.12,NNW,346,0.0,51.0,100,7.87,,,0.00,VWS V13.01,2013-01-26 05:43:00,
2013-01-26 00:47:00,17.0,17.0,30.12,NNW,346,0.0,51.0,100,7.87,,,0.00,VWS V13.01,2013-01-26 05:47:00,
2013-01-26 00:52:00,17.4,17.4,30.13,NNW,346,0.0,51.0,100,7.87,,,0.00,VWS V13.01,2013-01-26 05:52:00,
2013-01-26 00:57:00,17.5,17.5,30.13,NW,318,1.7,51.0,100,7.87,,,0.00,VWS V13.01,2013-01-26 05:57:00,
2013-01-26 01:02:00,16.8,16.8,30.13,NW,312,0.0,51.0,100,7.87,,,0.00,VWS V13.01,2013-01-26 06:02:00,
2013-01-26 01:07:00,16.8,16.8,30.13,NW,312,0.0,51.0,100,7.87,,,0.00,VWS V13.01,2013-01-26 06:07:00,
2013-01-26 01:12:00,17.1,17.1,30.13,NW,311,1.4,51.0,100,7.87,,,0.00,VWS V13.01,2013-01-26 06:12:00,
2013-01-26 01:17:00,17.4,17.4,30.13,WNW,298,1.6,51.0,100,7.87,,,0.00,VWS V13.01,2013-01-26 06:17:00,
2013-01-26 01:22:00,16.9,16.9,30.13,WNW,291,0.0,51.0,100,7.87,,,0.00,VWS V13.01,2013-01-26 06:22:00,
2013-01-26 01:27:00,17.5,17.5,30.13,WNW,291,0.0,51.0,100,7.87,,,0.00,VWS V13.01,2013-01-26 06:27:00,
2013-01-26 01:32:00,17.1,17.1,30.13,WNW,301,1.7,51.0,100,7.87,,,0.00,VWS V13.01,2013-01-26 06:32:00,
2013-01-26 01:37:00,16.9,16.9,30.13,NW,309,0.0,51.0,100,7.87,,,0.00,VWS V13.01,2013-01-26 06:37:00,
2013-01-26 01:42:00,16.5,16.5,30.12,NW,309,0.0,51.0,100,7.87,,,0.00,VWS V13.01,2013-01-26 06:42:00,
2013-01-26 01:47:00,17.2,17.2,30.12,NW,309,0.0,51.0,100,7.87,,,0.00,VWS V13.01,2013-01-26 06:47:00,
2013-01-26 01:52:00,16.7,16.7,30.12,NW,307,0.0,51.0,100,7.87,,,0.00,VWS V13.01,2013-01-26 06:52:00,
2013-01-26 01:57:00,17.2,17.2,30.12,NW,312,0.0,51.0,100,7.87,,,0.00,VWS V13.01,2013-01-26 06:57:00,
2013-01-26 02:02:00,16.6,16.6,30.12,NNW,330,0.0,51.0,100,7.87,,,0.00,VWS V13.01,2013-01-26 07:02:00,
2013-01-26 02:07:00,16.5,16.5,30.12,NW,323,0.0,51.0,100,7.87,,,0.00,VWS V13.01,2013-01-26 07:07:00,
2013-01-26 02:12:00,16.8,16.8,30.12,WNW,290,0.0,51.0,100,7.87,,,0.00,VWS V13.01,2013-01-26 07:12:00,
2013-01-26 02:17:00,15.9,15.9,30.11,NNW,336,0.0,51.0,100,7.87,,,0.00,VWS V13.01,2013-01-26 07:17:00,
2013-01-26 02:22:00,16.6,16.6,30.11,NNW,335,3.3,51.0,100,7.87,,,0.00,VWS V13.01,2013-01-26 07:22:00,
2013-01-26 02:27:00,16.5,16.5,30.11,NW,325,2.4,51.0,100,7.87,,,0.00,VWS V13.01,2013-01-26 07:27:00,
2013-01-26 02:32:00,15.9,15.9,30.11,NW,319,0.0,51.0,100,7.87,,,0.00,VWS V13.01,2013-01-26 07:32:00,
2013-01-26 02:37:00,15.8,15.8,30.11,NNW,333,2.5,51.0,100,7.87,,,0.00,VWS V13.01,2013-01-26 07:37:00,
2013-01-26 02:42:00,16.1,16.1,30.11,NW,315,1.6,51.0,100,7.87,,,0.00,VWS V13.01,2013-01-26 07:42:00,
2013-01-26 02:47:00,15.9,15.9,30.11,NW,304,0.0,51.0,100,7.87,,,0.00,VWS V13.01,2013-01-26 07:47:00,
2013-01-26 02:52:00,15.6,15.6,30.11,West,277,0.0,51.0,100,7.87,,,0.00,VWS V13.01,2013-01-26 07:52:00,
2013-01-26 02:57:00,16.1,16.1,30.11,NNW,330,2.2,51.0,100,7.87,,,0.00,VWS V13.01,2013-01-26 07:57:00,
2013-01-26 03:02:00,15.6,15.6,30.11,NNW,330,2.7,51.0,100,7.87,,,0.00,VWS V13.01,2013-01-26 08:02:00,
2013-01-26 03:07:00,15.6,15.6,30.11,WNW,298,0.0,51.0,100,7.87,,,0.00,VWS V13.01,2013-01-26 08:07:00,
2013-01-26 03:12:00,15.7,15.7,30.10,WNW,298,0.0,51.0,100,7.87,,,0.00,VWS V13.01,2013-01-26 08:12:00,
2013-01-26 03:17:00,15.7,15.7,30.10,WNW,298,0.0,51.0,100,7.87,,,0.00,VWS V13.01,2013-01-26 08:17:00,
2013-01-26 03:22:00,15.6,15.6,30.10,WNW,298,0.0,51.0,100,7.87,,,0.00,VWS V13.01,2013-01-26 08:22:00,
2013-01-26 03:27:00,15.4,15.4,30.10,NNW,340,0.0,51.0,100,7.87,,,0.00,VWS V13.01,2013-01-26 08:27:00,
2013-01-26 03:32:00,15.6,15.6,30.10,NNW,340,0.0,51.0,100,7.87,,,0.00,VWS V13.01,2013-01-26 08:32:00,
2013-01-26 03:37:00,15.5,15.5,30.10,NW,312,0.0,51.0,100,7.87,,,0.00,VWS V13.01,2013-01-26 08:37:00,
2013-01-26 03:42:00,15.3,15.3,30.10,NW,326,0.0,51.0,100,7.87,,,0.00,VWS V13.01,2013-01-26 08:42:00,
2013-01-26 03:47:00,15.7,15.7,30.10,North,352,0.0,51.0,100,7.87,,,0.00,VWS V13.01,2013-01-26 08:47:00,
2013-01-26 03:52:00,15.7,15.7,30.10,NNW,339,0.0,51.0,100,7.87,,,0.00,VWS V13.01,2013-01-26 08:52:00,
2013-01-26 03:57:00,15.7,15.7,30.10,NW,318,2.0,51.0,100,7.87,,,0.00,VWS V13.01,2013-01-26 08:57:00,
2013-01-26 04:02:00,15.9,15.9,30.10,NNW,340,1.8,51.0,100,7.87,,,0.00,VWS V13.01,2013-01-26 09:02:00,
2013-01-26 04:07:00,16.2,16.2,30.10,North,3,2.5,51.0,100,7.87,,,0.00,VWS V13.01,2013-01-26 09:07:00,
2013-01-26 04:12:00,16.0,16.0,30.10,NW,304,1.7,51.0,100,7.87,,,0.00,VWS V13.01,2013-01-26 09:12:00,
2013-01-26 04:17:00,16.1,16.1,30.11,West,269,1.5,51.0,100,7.87,,,0.00,VWS V13.01,2013-01-26 09:17:00,
2013-01-26 04:22:00,15.9,15.9,30.11,NNW,340,3.9,51.0,100,7.87,,,0.00,VWS V13.01,2013-01-26 09:22:00,
2013-01-26 04:27:00,16.1,16.1,30.11,NW,325,2.2,51.0,100,7.87,,,0.00,VWS V13.01,2013-01-26 09:27:00,
2013-01-26 04:32:00,16.0,16.0,30.11,NNW,332,3.0,51.0,100,7.87,,,0.00,VWS V13.01,2013-01-26 09:32:00,
2013-01-26 04:37:00,16.1,16.1,30.11,NW,316,3.3,51.0,100,7.87,,,0.00,VWS V13.01,2013-01-26 09:37:00,
2013-01-26 04:42:00,15.8,15.8,30.11,NNW,342,3.2,51.0,100,7.87,,,0.00,VWS V13.01,2013-01-26 09:42:00,
2013-01-26 04:47:00,16.0,16.0,30.11,NNW,336,0.0,51.0,100,7.87,,,0.00,VWS V13.01,2013-01-26 09:47:00,
2013-01-26 04:52:00,16.0,16.0,30.12,NW,322,2.4,51.0,100,7.87,,,0.00,VWS V13.01,2013-01-26 09:52:00,
2013-01-26 04:57:00,15.8,15.8,30.12,NNW,332,2.8,51.0,100,7.87,,,0.00,VWS V13.01,2013-01-26 09:57:00,
2013-01-26 05:02:00,15.6,15.6,30.12,NNW,332,6.2,51.0,100,7.87,,,0.00,VWS V13.01,2013-01-26 10:02:00,
2013-01-26 05:07:00,15.6,15.6,30.12,WNW,284,0.0,51.0,100,7.87,,,0.00,VWS V13.01,2013-01-26 10:07:00,
2013-01-26 05:12:00,15.5,15.5,30.12,NW,304,0.0,51.0,100,7.87,,,0.00,VWS V13.01,2013-01-26 10:12:00,
2013-01-26 05:17:00,15.9,15.9,30.13,NW,314,0.0,51.0,100,7.87,,,0.00,VWS V13.01,2013-01-26 10:17:00,
2013-01-26 05:22:00,15.6,15.6,30.13,WNW,301,2.1,51.0,100,7.87,,,0.00,VWS V13.01,2013-01-26 10:22:00,
2013-01-26 05:27:00,15.3,15.3,30.13,NW,305,2.7,51.0,100,7.87,,,0.00,VWS V13.01,2013-01-26 10:27:00,
2013-01-26 05:32:00,14.9,14.9,30.14,NW,307,3.1,51.0,100,7.87,,,0.00,VWS V13.01,2013-01-26 10:32:00,
2013-01-26 05:37:00,15.1,15.1,30.14,NW,321,4.2,51.0,100,7.87,,,0.00,VWS V13.01,2013-01-26 10:37:00,
2013-01-26 05:42:00,15.0,15.0,30.14,NNW,338,3.7,51.0,100,7.87,,,0.00,VWS V13.01,2013-01-26 10:42:00,
2013-01-26 05:47:00,15.0,15.0,30.15,NW,319,1.7,51.0,100,7.87,,,0.00,VWS V13.01,2013-01-26 10:47:00,
2013-01-26 05:52:00,15.4,15.4,30.15,NW,318,5.2,51.0,100,7.87,,,0.00,VWS V13.01,2013-01-26 10:52:00,
2013-01-26 05:57:00,14.9,14.9,30.15,NW,312,2.1,51.0,100,7.87,,,0.00,VWS V13.01,2013-01-26 10:57:00,
2013-01-26 06:02:00,15.0,15.0,30.15,North,352,4.3,51.0,100,7.87,,,0.00,VWS V13.01,2013-01-26 11:02:00,
2013-01-26 06:07:00,15.2,15.2,30.15,NW,312,3.7,51.0,100,7.87,,,0.00,VWS V13.01,2013-01-26 11:07:00,
2013-01-26 06:12:00,15.0,15.0,30.15,NW,307,2.7,51.0,100,7.87,,,0.00,VWS V13.01,2013-01-26 11:12:00,
2013-01-26 06:17:00,15.4,15.4,30.15,NNW,332,2.4,51.0,100,7.87,,,0.00,VWS V13.01,2013-01-26 11:17:00,
2013-01-26 06:22:00,15.1,15.1,30.15,NNW,332,3.0,51.0,100,7.87,,,0.00,VWS V13.01,2013-01-26 11:22:00,
2013-01-26 06:27:00,15.2,15.2,30.15,NNW,332,1.4,51.0,100,7.87,,,0.00,VWS V13.01,2013-01-26 11:27:00,
2013-01-26 06:32:00,15.0,14.9,30.15,North,350,1.6,51.0,100,7.87,,,0.00,VWS V13.01,2013-01-26 11:32:00,
2013-01-26 06:37:00,15.2,15.1,30.15,NNW,330,1.6,51.0,100,7.87,,,0.00,VWS V13.01,2013-01-26 11:37:00,
2013-01-26 06:42:00,15.3,15.2,30.15,NW,312,3.4,51.0,100,7.87,,,0.00,VWS V13.01,2013-01-26 11:42:00,
2013-01-26 06:47:00,15.0,15.0,30.15,North,349,2.2,51.0,100,7.87,,,0.00,VWS V13.01,2013-01-26 11:47:00,
2013-01-26 06:52:00,15.2,15.2,30.16,NNW,342,7.4,51.0,100,7.87,,,0.00,VWS V13.01,2013-01-26 11:52:00,
2013-01-26 06:57:00,15.8,15.8,30.15,NNW,338,2.9,51.0,100,7.87,,,0.00,VWS V13.01,2013-01-26 11:57:00,
2013-01-26 07:02:00,15.8,15.8,30.15,NNW,345,1.5,51.0,100,7.87,,,0.00,VWS V13.01,2013-01-26 12:02:00,
2013-01-26 07:07:00,15.9,15.9,30.15,NNE,15,4.3,51.0,100,7.87,,,0.00,VWS V13.01,2013-01-26 12:07:00,
2013-01-26 07:12:00,16.0,15.9,30.16,NW,315,3.0,51.0,100,7.87,,,0.00,VWS V13.01,2013-01-26 12:12:00,
2013-01-26 07:17:00,16.1,16.0,30.16,NW,318,2.5,51.0,100,7.87,,,0.00,VWS V13.01,2013-01-26 12:17:00,
2013-01-26 07:22:00,16.2,16.1,30.16,NW,316,2.9,51.0,100,7.87,,,0.00,VWS V13.01,2013-01-26 12:22:00,
2013-01-26 07:27:00,16.1,16.0,30.17,NNW,329,4.4,51.0,100,7.87,,,0.00,VWS V13.01,2013-01-26 12:27:00,
2013-01-26 07:32:00,16.4,16.3,30.18,NNW,346,4.3,51.0,100,7.87,,,0.00,VWS V13.01,2013-01-26 12:32:00,
2013-01-26 07:37:00,16.3,16.2,30.18,North,359,4.7,51.0,100,7.87,,,0.00,VWS V13.01,2013-01-26 12:37:00,
2013-01-26 07:42:00,16.3,16.1,30.18,WNW,301,1.8,51.0,99,7.87,,,0.00,VWS V13.01,2013-01-26 12:42:00,
2013-01-26 07:47:00,16.6,16.4,30.18,NW,314,1.3,51.0,99,7.87,,,0.00,VWS V13.01,2013-01-26 12:47:00,
2013-01-26 07:52:00,16.8,16.6,30.18,NW,305,2.7,51.0,99,7.87,,,0.00,VWS V13.01,2013-01-26 12:52:00,
2013-01-26 07:57:00,16.9,16.7,30.19,NW,307,0.0,51.0,99,7.87,,,0.00,VWS V13.01,2013-01-26 12:57:00,
2013-01-26 08:02:00,17.0,16.8,30.19,NW,315,2.9,51.0,99,7.87,,,0.00,VWS V13.01,2013-01-26 13:02:00,
2013-01-26 08:07:00,17.7,17.5,30.19,NW,325,5.7,51.0,99,7.87,,,0.00,VWS V13.01,2013-01-26 13:07:00,
2013-01-26 08:12:00,18.3,18.0,30.19,NW,316,1.7,51.0,99,7.87,,,0.00,VWS V13.01,2013-01-26 13:12:00,
2013-01-26 08:17:00,18.2,17.9,30.19,WNW,292,1.8,51.0,98,7.87,,,0.00,VWS V13.01,2013-01-26 13:17:00,
2013-01-26 08:22:00,18.5,18.1,30.19,North,349,3.5,51.0,98,7.87,,,0.00,VWS V13.01,2013-01-26 13:22:00,
2013-01-26 08:27:00,18.6,18.2,30.19,NNW,346,2.8,51.0,98,7.87,,,0.00,VWS V13.01,2013-01-26 13:27:00,
2013-01-26 08:32:00,18.7,18.2,30.19,NNW,338,3.3,51.0,98,7.87,,,0.00,VWS V13.01,2013-01-26 13:32:00,
2013-01-26 08:37:00,18.9,18.5,30.20,NNW,332,3.4,51.0,98,7.87,,,0.00,VWS V13.01,2013-01-26 13:37:00,
2013-01-26 08:42:00,19.7,19.2,30.20,NNW,338,3.2,51.0,98,7.87,,,0.00,VWS V13.01,2013-01-26 13:42:00,
2013-01-26 08:47:00,20.2,19.6,30.20,North,1,2.3,51.0,97,7.87,,,0.00,VWS V13.01,2013-01-26 13:47:00,
2013-01-26 08:52:00,20.6,19.9,30.20,NNE,14,5.5,51.0,97,7.87,,,0.00,VWS V13.01,2013-01-26 13:52:00,
2013-01-26 08:57:00,21.3,20.5,30.20,NNE,32,7.1,51.0,97,7.87,,,0.00,VWS V13.01,2013-01-26 13:57:00,
2013-01-26 09:02:00,21.8,20.9,30.20,North,359,4.2,51.0,96,7.87,,,0.00,VWS V13.01,2013-01-26 14:02:00,
2013-01-26 09:07:00,22.0,21.0,30.20,North,3,5.9,51.0,96,7.87,,,0.00,VWS V13.01,2013-01-26 14:07:00,
2013-01-26 09:12:00,22.8,21.7,30.20,NW,318,2.9,51.0,96,7.87,,,0.00,VWS V13.01,2013-01-26 14:12:00,
2013-01-26 09:17:00,22.8,21.6,30.20,NNW,346,6.6,51.0,95,7.87,,,0.00,VWS V13.01,2013-01-26 14:17:00,
2013-01-26 09:22:00,23.2,21.9,30.20,NNW,345,4.6,51.0,94,7.87,,,0.00,VWS V13.01,2013-01-26 14:22:00,
2013-01-26 09:27:00,23.1,21.7,30.20,NNW,339,2.7,51.0,94,7.87,,,0.00,VWS V13.01,2013-01-26 14:27:00,
2013-01-26 09:32:00,23.7,22.1,30.20,NNW,330,0.8,51.0,93,7.87,,,0.00,VWS V13.01,2013-01-26 14:32:00,
2013-01-26 09:37:00,23.6,21.9,30.20,North,3,3.9,51.0,93,7.87,,,0.00,VWS V13.01,2013-01-26 14:37:00,
2013-01-26 09:42:00,24.2,22.3,30.20,NW,309,3.6,51.0,92,7.87,,,0.00,VWS V13.01,2013-01-26 14:42:00,
2013-01-26 09:47:00,24.9,22.9,30.20,North,357,9.3,51.0,92,7.87,,,0.00,VWS V13.01,2013-01-26 14:47:00,
2013-01-26 09:52:00,25.5,23.4,30.20,NNW,336,3.3,51.0,92,7.87,,,0.00,VWS V13.01,2013-01-26 14:52:00,
2013-01-26 09:57:00,25.7,23.4,30.20,North,8,5.4,51.0,91,7.87,,,0.00,VWS V13.01,2013-01-26 14:57:00,
2013-01-26 10:02:00,26.0,23.5,30.21,NNW,332,4.4,51.0,90,7.87,,,0.00,VWS V13.01,2013-01-26 15:02:00,
2013-01-26 10:07:00,25.6,23.1,30.20,NW,322,3.4,51.0,90,7.87,,,0.00,VWS V13.01,2013-01-26 15:07:00,
2013-01-26 10:12:00,25.1,22.6,30.21,NNW,336,5.8,51.0,90,7.87,,,0.00,VWS V13.01,2013-01-26 15:12:00,
2013-01-26 10:17:00,25.2,22.7,30.21,NW,325,4.0,51.0,90,7.87,,,0.00,VWS V13.01,2013-01-26 15:17:00,
2013-01-26 10:22:00,25.3,22.7,30.21,NE,51,3.5,51.0,90,7.87,,,0.00,VWS V13.01,2013-01-26 15:22:00,
2013-01-26 10:27:00,25.0,22.4,30.21,North,3,0.6,51.0,90,7.87,,,0.00,VWS V13.01,2013-01-26 15:27:00,
2013-01-26 10:32:00,24.9,22.3,30.20,North,352,3.5,51.0,90,7.87,,,0.00,VWS V13.01,2013-01-26 15:32:00,
2013-01-26 10:37:00,24.9,22.0,30.21,NNW,338,7.1,51.0,89,7.87,,,0.00,VWS V13.01,2013-01-26 15:37:00,
2013-01-26 10:42:00,24.9,22.1,30.21,North,3,6.0,51.0,89,7.87,,,0.00,VWS V13.01,2013-01-26 15:42:00,
2013-01-26 10:47:00,24.7,22.1,30.21,NNW,329,3.4,51.0,90,7.87,,,0.00,VWS V13.01,2013-01-26 15:47:00,
2013-01-26 10:51:00,25.0,22.2,30.21,North,4,4.5,51.0,89,7.87,,,0.00,VWS V13.01,2013-01-26 15:51:00,
2013-01-26 10:56:00,25.0,22.1,30.21,NW,318,4.6,51.0,89,7.87,,,0.00,VWS V13.01,2013-01-26 15:56:00,
2013-01-26 11:01:00,25.4,22.5,30.21,NW,311,6.0,51.0,88,7.87,,,0.00,VWS V13.01,2013-01-26 16:01:00,
2013-01-26 11:06:00,25.2,22.1,30.21,NW,304,4.5,51.0,88,7.87,,,0.00,VWS V13.01,2013-01-26 16:06:00,
2013-01-26 11:11:00,25.8,22.9,30.21,NW,323,3.9,51.0,88,7.87,,,0.00,VWS V13.01,2013-01-26 16:11:00,
2013-01-26 11:16:00,25.5,22.5,30.21,North,352,5.3,51.0,88,7.87,,,0.00,VWS V13.01,2013-01-26 16:16:00,
2013-01-26 11:21:00,26.0,22.9,30.21,North,349,3.9,51.0,88,7.87,,,0.00,VWS V13.01,2013-01-26 16:21:00,
2013-01-26 11:26:00,26.6,23.3,30.22,NNW,338,4.8,51.0,87,7.87,,,0.00,VWS V13.01,2013-01-26 16:26:00,
2013-01-26 11:31:00,27.0,23.6,30.22,NNW,338,4.0,51.0,87,7.87,,,0.00,VWS V13.01,2013-01-26 16:31:00,
2013-01-26 11:36:00,27.2,23.9,30.22,NNW,343,8.3,51.0,87,7.87,,,0.00,VWS V13.01,2013-01-26 16:36:00,
2013-01-26 11:41:00,27.0,23.4,30.22,North,354,4.4,51.0,86,7.87,,,0.00,VWS V13.01,2013-01-26 16:41:00,
2013-01-26 11:46:00,27.2,23.4,30.22,NNW,343,6.3,51.0,85,7.87,,,0.00,VWS V13.01,2013-01-26 16:46:00,
2013-01-26 11:51:00,27.3,23.5,30.21,NNW,335,9.4,51.0,85,7.87,,,0.00,VWS V13.01,2013-01-26 16:51:00,
2013-01-26 11:56:00,26.7,22.7,30.21,NNW,346,5.0,51.0,85,7.87,,,0.00,VWS V13.01,2013-01-26 16:56:00,
2013-01-26 12:01:00,26.8,22.9,30.22,NNW,329,7.0,51.0,85,7.87,,,0.00,VWS V13.01,2013-01-26 17:01:00,
2013-01-26 12:06:00,27.3,23.5,30.21,NW,316,4.7,51.0,86,7.87,,,0.00,VWS V13.01,2013-01-26 17:06:00,
2013-01-26 12:11:00,27.5,23.4,30.21,North,7,6.6,51.0,84,7.87,,,0.00,VWS V13.01,2013-01-26 17:11:00,
2013-01-26 12:16:00,27.6,23.5,30.20,NNW,340,3.7,51.0,84,7.87,,,0.00,VWS V13.01,2013-01-26 17:16:00,
2013-01-26 12:21:00,27.7,23.6,30.20,NW,315,4.2,51.0,84,7.87,,,0.00,VWS V13.01,2013-01-26 17:21:00,
2013-01-26 12:26:00,28.3,24.2,30.20,North,3,4.3,51.0,84,7.87,,,0.00,VWS V13.01,2013-01-26 17:26:00,
2013-01-26 12:31:00,28.6,24.1,30.19,NNE,20,7.5,51.0,83,7.87,,,0.00,VWS V13.01,2013-01-26 17:31:00,
2013-01-26 12:36:00,28.9,24.2,30.19,North,359,8.9,51.0,82,7.87,,,0.00,VWS V13.01,2013-01-26 17:36:00,
2013-01-26 12:41:00,28.9,24.2,30.18,NW,322,7.6,51.0,82,7.87,,,0.00,VWS V13.01,2013-01-26 17:41:00,
2013-01-26 12:46:00,28.7,23.9,30.18,North,7,4.3,51.0,82,7.87,,,0.00,VWS V13.01,2013-01-26 17:46:00,
2013-01-26 12:51:00,29.1,24.1,30.18,NNW,343,7.1,51.0,81,7.87,,,0.00,VWS V13.01,2013-01-26 17:51:00,
2013-01-26 12:56:00,29.2,24.1,30.18,NW,311,7.0,51.0,81,7.87,,,0.00,VWS V13.01,2013-01-26 17:56:00,
2013-01-26 13:01:00,29.2,24.0,30.18,NW,311,3.3,51.0,80,7.87,,,0.00,VWS V13.01,2013-01-26 18:01:00,
2013-01-26 13:06:00,28.7,23.2,30.18,NW,325,6.5,51.0,80,7.87,,,0.00,VWS V13.01,2013-01-26 18:06:00,
2013-01-26 13:11:00,29.0,23.6,30.17,West,277,2.1,51.0,80,7.87,,,0.00,VWS V13.01,2013-01-26 18:11:00,
2013-01-26 13:16:00,29.3,23.8,30.17,WNW,292,6.7,51.0,80,7.87,,,0.00,VWS V13.01,2013-01-26 18:16:00,
2013-01-26 13:21:00,28.9,23.3,30.17,NNW,333,7.5,51.0,79,7.87,,,0.00,VWS V13.01,2013-01-26 18:21:00,
2013-01-26 13:26:00,29.5,23.6,30.17,WNW,301,5.2,51.0,78,7.87,,,0.00,VWS V13.01,2013-01-26 18:26:00,
2013-01-26 13:31:00,29.5,23.6,30.17,NW,312,5.7,51.0,78,7.87,,,0.00,VWS V13.01,2013-01-26 18:31:00,
2013-01-26 13:36:00,29.6,23.5,30.18,NW,312,6.3,51.0,78,7.87,,,0.00,VWS V13.01,2013-01-26 18:36:00,
2013-01-26 13:41:00,30.0,23.7,30.17,NNW,335,5.8,51.0,77,7.87,,,0.00,VWS V13.01,2013-01-26 18:41:00,
2013-01-26 13:46:00,29.6,23.3,30.18,NNW,339,5.0,51.0,77,7.87,,,0.00,VWS V13.01,2013-01-26 18:46:00,
2013-01-26 13:51:00,30.3,23.7,30.18,NNW,329,6.4,51.0,76,7.87,,,0.00,VWS V13.01,2013-01-26 18:51:00,
2013-01-26 13:56:00,30.1,23.2,30.18,NNW,345,6.5,51.0,75,7.87,,,0.00,VWS V13.01,2013-01-26 18:56:00,
2013-01-26 14:01:00,30.0,23.0,30.18,North,359,4.9,51.0,75,7.87,,,0.00,VWS V13.01,2013-01-26 19:01:00,
2013-01-26 14:06:00,30.1,22.7,30.18,ENE,62,4.3,51.0,74,7.87,,,0.00,VWS V13.01,2013-01-26 19:06:00,
2013-01-26 14:11:00,30.5,22.8,30.18,North,11,3.2,51.0,73,7.87,,,0.00,VWS V13.01,2013-01-26 19:11:00,
2013-01-26 14:16:00,30.1,22.4,30.18,NW,326,9.2,51.0,73,7.87,,,0.00,VWS V13.01,2013-01-26 19:16:00,
2013-01-26 14:21:00,30.5,22.6,30.18,North,10,6.0,51.0,72,7.87,,,0.00,VWS V13.01,2013-01-26 19:21:00,
2013-01-26 14:26:00,29.8,22.0,30.18,NW,323,5.5,51.0,72,7.87,,,0.00,VWS V13.01,2013-01-26 19:26:00,
2013-01-26 14:31:00,29.7,22.2,30.18,NE,41,1.8,51.0,73,7.87,,,0.00,VWS V13.01,2013-01-26 19:31:00,
2013-01-26 14:36:00,30.0,22.3,30.18,NNW,336,4.5,51.0,73,7.87,,,0.00,VWS V13.01,2013-01-26 19:36:00,
2013-01-26 14:41:00,30.2,22.2,30.18,NW,318,5.9,51.0,72,7.87,,,0.00,VWS V13.01,2013-01-26 19:41:00,
2013-01-26 14:46:00,30.5,22.2,30.19,NE,55,2.2,51.0,71,7.87,,,0.00,VWS V13.01,2013-01-26 19:46:00,
2013-01-26 14:51:00,30.2,22.1,30.19,NW,315,5.2,51.0,72,7.87,,,0.00,VWS V13.01,2013-01-26 19:51:00,
2013-01-26 14:56:00,30.3,21.8,30.19,NNW,346,8.5,51.0,70,7.87,,,0.00,VWS V13.01,2013-01-26 19:56:00,
2013-01-26 15:01:00,30.6,22.2,30.19,NNW,328,5.9,51.0,70,7.87,,,0.00,VWS V13.01,2013-01-26 20:01:00,
2013-01-26 15:06:00,30.3,21.8,30.20,North,6,8.6,51.0,70,7.87,,,0.00,VWS V13.01,2013-01-26 20:06:00,
2013-01-26 15:11:00,30.3,21.9,30.20,NW,319,9.6,51.0,71,7.87,,,0.00,VWS V13.01,2013-01-26 20:11:00,
2013-01-26 15:16:00,30.6,22.3,30.20,NNW,332,8.3,51.0,71,7.87,,,0.00,VWS V13.01,2013-01-26 20:16:00,
2013-01-26 15:21:00,30.6,22.2,30.20,North,357,10.1,51.0,71,7.87,,,0.00,VWS V13.01,2013-01-26 20:21:00,
2013-01-26 15:26:00,30.6,22.0,30.20,NNW,346,7.6,51.0,70,7.87,,,0.00,VWS V13.01,2013-01-26 20:26:00,
2013-01-26 15:31:00,30.4,21.7,30.20,North,356,8.7,51.0,70,7.87,,,0.00,VWS V13.01,2013-01-26 20:31:00,
2013-01-26 15:36:00,30.2,21.3,30.20,NNW,332,4.3,51.0,69,7.87,,,0.00,VWS V13.01,2013-01-26 20:36:00,
2013-01-26 15:41:00,30.4,21.6,30.21,North,8,4.1,51.0,69,7.87,,,0.00,VWS V13.01,2013-01-26 20:41:00,
2013-01-26 15:46:00,29.8,21.0,30.21,NW,315,8.0,51.0,69,7.87,,,0.00,VWS V13.01,2013-01-26 20:46:00,
2013-01-26 15:51:00,29.8,20.8,30.21,NW,315,6.2,51.0,69,7.87,,,0.00,VWS V13.01,2013-01-26 20:51:00,
2013-01-26 15:56:00,30.5,21.5,30.21,NNW,330,3.0,51.0,69,7.87,,,0.00,VWS V13.01,2013-01-26 20:56:00,
2013-01-26 16:01:00,30.4,21.3,30.22,NW,311,8.0,51.0,69,7.87,,,0.00,VWS V13.01,2013-01-26 21:01:00,
2013-01-26 16:06:00,30.3,21.3,30.22,North,353,6.6,51.0,69,7.87,,,0.00,VWS V13.01,2013-01-26 21:06:00,
2013-01-26 16:11:00,30.0,21.1,30.22,North,359,5.6,51.0,69,7.87,,,0.00,VWS V13.01,2013-01-26 21:11:00,
2013-01-26 16:16:00,29.9,20.9,30.22,NNW,339,5.8,51.0,69,7.87,,,0.00,VWS V13.01,2013-01-26 21:16:00,
2013-01-26 16:21:00,29.9,21.0,30.22,NNW,338,2.8,51.0,69,7.87,,,0.00,VWS V13.01,2013-01-26 21:21:00,
2013-01-26 16:26:00,29.8,21.0,30.22,North,354,4.9,51.0,69,7.87,,,0.00,VWS V13.01,2013-01-26 21:26:00,
2013-01-26 16:31:00,30.0,21.2,30.23,NNW,346,3.5,51.0,69,7.87,,,0.00,VWS V13.01,2013-01-26 21:31:00,
2013-01-26 16:36:00,30.1,21.5,30.22,NNW,335,5.2,51.0,70,7.87,,,0.00,VWS V13.01,2013-01-26 21:36:00,
2013-01-26 16:41:00,30.0,21.3,30.23,NW,308,8.8,51.0,70,7.87,,,0.00,VWS V13.01,2013-01-26 21:41:00,
2013-01-26 16:46:00,29.7,21.1,30.23,NNW,343,6.8,51.0,70,7.87,,,0.00,VWS V13.01,2013-01-26 21:46:00,
2013-01-26 16:51:00,29.6,21.0,30.23,NW,307,6.6,51.0,70,7.87,,,0.00,VWS V13.01,2013-01-26 21:51:00,
2013-01-26 16:56:00,29.3,20.9,30.23,NNW,330,11.7,51.0,70,7.87,,,0.00,VWS V13.01,2013-01-26 21:56:00,
2013-01-26 17:01:00,29.3,20.8,30.23,NNW,339,7.6,51.0,70,7.87,,,0.00,VWS V13.01,2013-01-26 22:01:00,
2013-01-26 17:06:00,29.2,20.8,30.23,NNW,346,3.0,51.0,70,7.87,,,0.00,VWS V13.01,2013-01-26 22:06:00,
2013-01-26 17:11:00,29.1,20.7,30.24,NNW,347,5.2,51.0,70,7.87,,,0.00,VWS V13.01,2013-01-26 22:11:00,
2013-01-26 17:16:00,29.0,20.7,30.24,NNW,335,8.1,51.0,71,7.87,,,0.00,VWS V13.01,2013-01-26 22:16:00,
2013-01-26 17:21:00,29.1,20.6,30.24,North,10,3.2,51.0,70,7.87,,,0.00,VWS V13.01,2013-01-26 22:21:00,
2013-01-26 17:26:00,28.9,20.5,30.25,NNW,347,6.8,51.0,70,7.87,,,0.00,VWS V13.01,2013-01-26 22:26:00,
2013-01-26 17:31:00,28.7,20.3,30.25,North,353,4.6,51.0,70,7.87,,,0.00,VWS V13.01,2013-01-26 22:31:00,
2013-01-26 17:36:00,28.6,20.3,30.25,NW,311,7.1,51.0,71,7.87,,,0.00,VWS V13.01,2013-01-26 22:36:00,
2013-01-26 17:41:00,28.4,20.1,30.26,North,11,12.6,51.0,71,7.87,,,0.00,VWS V13.01,2013-01-26 22:41:00,
2013-01-26 17:46:00,28.2,20.1,30.26,North,356,7.3,51.0,71,7.87,,,0.00,VWS V13.01,2013-01-26 22:46:00,
2013-01-26 17:51:00,28.3,20.2,30.27,North,352,9.7,51.0,71,7.87,,,0.00,VWS V13.01,2013-01-26 22:51:00,
2013-01-26 17:56:00,28.3,20.2,30.28,North,359,9.6,51.0,71,7.87,,,0.00,VWS V13.01,2013-01-26 22:56:00,
2013-01-26 18:01:00,27.9,19.9,30.27,NNW,343,4.5,51.0,72,7.87,,,0.00,VWS V13.01,2013-01-26 23:01:00,
2013-01-26 18:06:00,27.6,19.7,30.27,NW,318,5.0,51.0,72,7.87,,,0.00,VWS V13.01,2013-01-26 23:06:00,
2013-01-26 18:11:00,27.8,20.0,30.28,NW,322,7.3,51.0,72,7.87,,,0.00,VWS V13.01,2013-01-26 23:11:00,
2013-01-26 18:16:00,27.7,19.9,30.28,NNE,15,5.3,51.0,72,7.87,,,0.00,VWS V13.01,2013-01-26 23:16:00,
2013-01-26 18:21:00,27.9,20.2,30.28,North,350,4.5,51.0,73,7.87,,,0.00,VWS V13.01,2013-01-26 23:21:00,
2013-01-26 18:26:00,27.3,19.8,30.28,NNW,329,4.2,51.0,73,7.87,,,0.00,VWS V13.01,2013-01-26 23:26:00,
2013-01-26 18:31:00,27.0,19.5,30.29,North,359,4.3,51.0,73,7.87,,,0.00,VWS V13.01,2013-01-26 23:31:00,
2013-01-26 18:36:00,27.1,19.6,30.29,NW,321,3.9,51.0,73,7.87,,,0.00,VWS V13.01,2013-01-26 23:36:00,
2013-01-26 18:41:00,27.0,19.5,30.30,NNW,335,5.3,51.0,73,7.87,,,0.00,VWS V13.01,2013-01-26 23:41:00,
2013-01-26 18:46:00,27.0,19.6,30.30,NW,312,4.7,51.0,73,7.87,,,0.00,VWS V13.01,2013-01-26 23:46:00,
2013-01-26 18:51:00,27.0,19.6,30.29,NNW,329,3.8,51.0,73,7.87,,,0.00,VWS V13.01,2013-01-26 23:51:00,
2013-01-26 18:56:00,26.6,19.2,30.30,North,0,6.2,51.0,73,7.87,,,0.00,VWS V13.01,2013-01-26 23:56:00,
2013-01-26 19:01:00,26.8,19.4,30.31,North,3,7.2,51.0,73,7.87,,,0.00,VWS V13.01,2013-01-27 00:01:00,
2013-01-26 19:06:00,26.6,19.2,30.30,North,359,5.2,51.0,73,7.87,,,0.00,VWS V13.01,2013-01-27 00:06:00,
2013-01-26 19:11:00,26.5,19.2,30.30,North,359,3.6,51.0,74,7.87,,,0.00,VWS V13.01,2013-01-27 00:11:00,
2013-01-26 19:16:00,26.3,19.1,30.31,NW,326,4.8,51.0,74,7.87,,,0.00,VWS V13.01,2013-01-27 00:16:00,
2013-01-26 19:21:00,26.1,18.8,30.31,NNW,342,5.0,51.0,74,7.87,,,0.00,VWS V13.01,2013-01-27 00:21:00,
2013-01-26 19:26:00,25.9,18.6,30.31,NNW,346,3.0,51.0,74,7.87,,,0.00,VWS V13.01,2013-01-27 00:26:00,
2013-01-26 19:31:00,26.1,18.9,30.31,NE,38,3.4,51.0,74,7.87,,,0.00,VWS V13.01,2013-01-27 00:31:00,
2013-01-26 19:36:00,25.9,18.7,30.31,NNE,31,3.4,51.0,74,7.87,,,0.00,VWS V13.01,2013-01-27 00:36:00,
2013-01-26 19:41:00,25.9,18.7,30.32,NNW,346,6.3,51.0,74,7.87,,,0.00,VWS V13.01,2013-01-27 00:41:00,
2013-01-26 19:46:00,26.3,19.1,30.32,North,359,7.8,51.0,74,7.87,,,0.00,VWS V13.01,2013-01-27 00:46:00,
2013-01-26 19:51:00,25.8,18.7,30.33,North,6,7.8,51.0,74,7.87,,,0.00,VWS V13.01,2013-01-27 00:51:00,
2013-01-26 19:56:00,25.7,18.6,30.33,North,4,3.8,51.0,74,7.87,,,0.00,VWS V13.01,2013-01-27 00:56:00,
2013-01-26 20:01:00,25.7,18.6,30.33,North,8,9.2,51.0,74,7.87,,,0.00,VWS V13.01,2013-01-27 01:01:00,
2013-01-26 20:06:00,25.7,18.7,30.33,North,359,7.1,51.0,74,7.87,,,0.00,VWS V13.01,2013-01-27 01:06:00,
2013-01-26 20:11:00,25.4,18.4,30.34,North,359,5.8,51.0,74,7.87,,,0.00,VWS V13.01,2013-01-27 01:11:00,
2013-01-26 20:16:00,25.4,18.4,30.34,NNW,342,2.1,51.0,74,7.87,,,0.00,VWS V13.01,2013-01-27 01:16:00,
2013-01-26 20:21:00,25.3,18.4,30.34,North,1,0.0,51.0,75,7.87,,,0.00,VWS V13.01,2013-01-27 01:21:00,
2013-01-26 20:26:00,25.0,18.1,30.34,North,357,4.3,51.0,75,7.87,,,0.00,VWS V13.01,2013-01-27 01:26:00,
2013-01-26 20:31:00,25.1,18.4,30.34,North,356,3.1,51.0,75,7.87,,,0.00,VWS V13.01,2013-01-27 01:31:00,
2013-01-26 20:36:00,25.3,18.5,30.34,NNW,343,2.1,51.0,75,7.87,,,0.00,VWS V13.01,2013-01-27 01:36:00,
2013-01-26 20:41:00,25.4,18.6,30.35,NW,316,6.0,51.0,75,7.87,,,0.00,VWS V13.01,2013-01-27 01:41:00,
2013-01-26 20:46:00,25.0,18.2,30.36,NNE,25,4.8,51.0,75,7.87,,,0.00,VWS V13.01,2013-01-27 01:46:00,
2013-01-26 20:51:00,25.0,18.3,30.36,North,356,2.5,51.0,75,7.87,,,0.00,VWS V13.01,2013-01-27 01:51:00,
2013-01-26 20:56:00,24.7,18.1,30.36,North,357,4.7,51.0,76,7.87,,,0.00,VWS V13.01,2013-01-27 01:56:00,
2013-01-26 21:01:00,24.7,18.0,30.36,NE,37,4.0,51.0,75,7.87,,,0.00,VWS V13.01,2013-01-27 02:01:00,
2013-01-26 21:06:00,24.6,18.0,30.36,NE,34,1.9,51.0,76,7.87,,,0.00,VWS V13.01,2013-01-27 02:06:00,
2013-01-26 21:11:00,24.6,18.0,30.37,North,359,5.0,51.0,75,7.87,,,0.00,VWS V13.01,2013-01-27 02:11:00,
2013-01-26 21:16:00,24.4,17.7,30.37,NNW,347,4.4,51.0,75,7.87,,,0.00,VWS V13.01,2013-01-27 02:16:00,
2013-01-26 21:20:00,24.6,18.0,30.37,North,359,3.3,51.0,75,7.87,,,0.00,VWS V13.01,2013-01-27 02:20:00,
2013-01-26 21:25:00,24.6,18.0,30.37,NNW,347,6.0,51.0,76,7.87,,,0.00,VWS V13.01,2013-01-27 02:25:00,
2013-01-26 21:30:00,24.3,17.8,30.38,NNE,20,7.8,51.0,76,7.87,,,0.00,VWS V13.01,2013-01-27 02:30:00,
2013-01-26 21:35:00,24.6,18.1,30.38,North,350,5.4,51.0,76,7.87,,,0.00,VWS V13.01,2013-01-27 02:35:00,
2013-01-26 21:40:00,24.4,17.9,30.38,NNW,340,4.0,51.0,76,7.87,,,0.00,VWS V13.01,2013-01-27 02:40:00,
2013-01-26 21:45:00,24.5,18.1,30.39,NNW,335,2.1,51.0,76,7.87,,,0.00,VWS V13.01,2013-01-27 02:45:00,
2013-01-26 21:50:00,24.5,18.2,30.39,North,0,6.6,51.0,76,7.87,,,0.00,VWS V13.01,2013-01-27 02:50:00,
2013-01-26 21:55:00,24.2,17.9,30.39,NNE,17,2.9,51.0,76,7.87,,,0.00,VWS V13.01,2013-01-27 02:55:00,
2013-01-26 22:00:00,24.0,17.8,30.39,North,354,5.4,51.0,77,7.87,,,0.00,VWS V13.01,2013-01-27 03:00:00,
2013-01-26 22:05:00,24.1,17.9,30.39,NNW,346,5.0,51.0,77,7.87,,,0.00,VWS V13.01,2013-01-27 03:05:00,
2013-01-26 22:10:00,23.9,17.8,30.39,NW,308,1.7,51.0,77,7.87,,,0.00,VWS V13.01,2013-01-27 03:10:00,
2013-01-26 22:15:00,24.1,18.1,30.40,North,350,0.6,51.0,78,7.87,,,0.00,VWS V13.01,2013-01-27 03:15:00,
2013-01-26 22:20:00,23.7,17.8,30.40,NNW,342,4.5,51.0,78,7.87,,,0.00,VWS V13.01,2013-01-27 03:20:00,
2013-01-26 22:25:00,23.7,17.8,30.40,NNW,328,0.0,51.0,78,7.87,,,0.00,VWS V13.01,2013-01-27 03:25:00,
2013-01-26 22:30:00,23.7,17.9,30.41,NW,323,3.0,51.0,78,7.87,,,0.00,VWS V13.01,2013-01-27 03:30:00,
2013-01-26 22:35:00,23.6,17.9,30.41,NW,322,0.0,51.0,78,7.87,,,0.00,VWS V13.01,2013-01-27 03:35:00,
2013-01-26 22:40:00,23.4,17.8,30.41,WNW,291,0.0,51.0,79,7.87,,,0.00,VWS V13.01,2013-01-27 03:40:00,
2013-01-26 22:45:00,23.4,17.8,30.42,North,3,1.5,51.0,79,7.87,,,0.00,VWS V13.01,2013-01-27 03:45:00,
2013-01-26 22:50:00,23.5,17.9,30.42,North,349,0.0,51.0,79,7.87,,,0.00,VWS V13.01,2013-01-27 03:50:00,
2013-01-26 22:55:00,23.3,17.8,30.41,NNW,332,2.7,51.0,79,7.87,,,0.00,VWS V13.01,2013-01-27 03:55:00,
2013-01-26 23:00:00,23.5,18.0,30.41,NW,312,0.0,51.0,79,7.87,,,0.00,VWS V13.01,2013-01-27 04:00:00,
2013-01-26 23:05:00,23.5,18.0,30.41,NNW,335,3.2,51.0,79,7.87,,,0.00,VWS V13.01,2013-01-27 04:05:00,
2013-01-26 23:10:00,23.2,17.8,30.41,North,350,4.0,51.0,80,7.87,,,0.00,VWS V13.01,2013-01-27 04:10:00,
2013-01-26 23:15:00,23.2,17.9,30.41,NW,325,0.0,51.0,80,7.87,,,0.00,VWS V13.01,2013-01-27 04:15:00,
2013-01-26 23:20:00,23.2,17.9,30.41,North,353,0.0,51.0,80,7.87,,,0.00,VWS V13.01,2013-01-27 04:20:00,
2013-01-26 23:25:00,23.3,18.1,30.42,North,349,0.0,51.0,80,7.87,,,0.00,VWS V13.01,2013-01-27 04:25:00,
2013-01-26 23:30:00,22.9,17.7,30.42,NNW,340,0.0,51.0,80,7.87,,,0.00,VWS V13.01,2013-01-27 04:30:00,
2013-01-26 23:35:00,23.0,17.9,30.42,NW,322,0.0,51.0,80,7.87,,,0.00,VWS V13.01,2013-01-27 04:35:00,
2013-01-26 23:40:00,23.0,17.9,30.42,NNW,336,0.0,51.0,81,7.87,,,0.00,VWS V13.01,2013-01-27 04:40:00,
2013-01-26 23:45:00,23.0,18.0,30.42,NNW,336,0.0,51.0,81,7.87,,,0.00,VWS V13.01,2013-01-27 04:45:00,
2013-01-26 23:50:00,22.8,17.9,30.42,NW,316,2.7,51.0,81,7.87,,,0.00,VWS V13.01,2013-01-27 04:50:00,
2013-01-26 23:55:00,22.5,17.6,30.42,NNW,333,2.3,51.0,81,7.87,,,0.00,VWS V13.01,2013-01-27 04:55:00,